Jaca, Aragón

latitud = 42° 34' 44''N | longitud = 000° 32' 49''W
823 metros sobre el nivel del mar | datos mensuales

Fecha, hora, temperatura, viento dirección y velocidad, humedad y presión.

  • 21-06-2018 22:00:00 | 21.90°C | Nordeste |11.00 km/h | 51.00% | 0.00 hPa
  • 21-06-2018 21:00:00 | 23.00°C | Norte |14.00 km/h | 53.00% | 0.00 hPa
  • 21-06-2018 20:00:00 | 22.50°C | Nordeste |18.00 km/h | 57.00% | 0.00 hPa
  • 21-06-2018 19:00:00 | 21.70°C | Nordeste |19.00 km/h | 64.00% | 0.00 hPa
  • 21-06-2018 18:00:00 | 22.60°C | Nordeste |26.00 km/h | 55.00% | 0.00 hPa
  • 21-06-2018 17:00:00 | 26.50°C | Noroeste |10.00 km/h | 40.00% | 0.00 hPa
  • 21-06-2018 16:00:00 | 29.70°C | Noroeste |10.00 km/h | 36.00% | 0.00 hPa
  • 21-06-2018 15:00:00 | 29.70°C | Oeste |5.00 km/h | 37.00% | 0.00 hPa
  • 21-06-2018 14:00:00 | 28.90°C | Sudoeste |8.00 km/h | 37.00% | 0.00 hPa
  • 21-06-2018 13:00:00 | 27.50°C | Oeste |5.00 km/h | 40.00% | 0.00 hPa
  • 21-06-2018 12:00:00 | 25.90°C | Noroeste |7.00 km/h | 44.00% | 0.00 hPa
  • 21-06-2018 11:00:00 | 24.10°C | Noroeste |3.00 km/h | 49.00% | 0.00 hPa
  • 21-06-2018 10:00:00 | 22.40°C | Sur |3.00 km/h | 52.00% | 0.00 hPa
  • 21-06-2018 09:00:00 | 19.20°C | Sudeste |2.00 km/h | 65.00% | 0.00 hPa
  • 21-06-2018 08:00:00 | 15.20°C | Nordeste |6.00 km/h | 76.00% | 0.00 hPa
  • 21-06-2018 07:00:00 | 14.60°C | Nordeste |11.00 km/h | 77.00% | 0.00 hPa
  • 21-06-2018 06:00:00 | 15.80°C | Nordeste |6.00 km/h | 72.00% | 0.00 hPa
  • 21-06-2018 05:00:00 | 15.60°C | Nordeste |8.00 km/h | 72.00% | 0.00 hPa
  • 21-06-2018 04:00:00 | 17.00°C | Nordeste |8.00 km/h | 67.00% | 0.00 hPa
  • 21-06-2018 03:00:00 | 17.30°C | Nordeste |6.00 km/h | 67.00% | 0.00 hPa
  • 21-06-2018 02:00:00 | 18.80°C | Este |4.00 km/h | 64.00% | 0.00 hPa
  • 21-06-2018 01:00:00 | 18.70°C | Nordeste |7.00 km/h | 65.00% | 0.00 hPa
  • 21-06-2018 00:00:00 | 19.00°C | Nordeste |5.00 km/h | 64.00% | 0.00 hPa
  • 20-06-2018 23:00:00 | 19.80°C | Nordeste |6.00 km/h | 63.00% | 0.00 hPa